Time,TemperatureF,DewpointF,PressureIn,WindDirection,WindDirectionDegrees,WindSpeedMPH,WindSpeedGustMPH,Humidity,HourlyPrecipIn,Conditions,Clouds,dailyrainin,SoftwareType,DateUTC
2013-06-27 00:02:00,68.0,67.0,-100.00,WSW,245,2.0,2.0,96,-99.99,,,-99.99,,2013-06-27 05:02:00,
2013-06-27 00:32:00,67.0,66.0,-100.00,ESE,110,0.0,0.0,96,-99.99,,,-99.99,,2013-06-27 05:32:00,
2013-06-27 00:42:00,67.0,66.0,-100.00,ESE,110,0.0,0.0,96,-99.99,,,-99.99,,2013-06-27 05:42:00,
2013-06-27 00:53:00,67.0,66.0,-100.00,ESE,110,0.0,0.0,96,-99.99,,,-99.99,,2013-06-27 05:53:00,
2013-06-27 01:01:00,67.0,66.0,-100.00,ESE,110,0.0,0.0,96,-99.99,,,-99.99,,2013-06-27 06:01:00,
2013-06-27 01:34:00,66.0,65.0,-100.00,WSW,255,1.0,1.0,96,-99.99,,,-99.99,,2013-06-27 06:34:00,
2013-06-27 01:43:00,66.0,65.0,-100.00,WSW,255,1.0,1.0,96,-99.99,,,-99.99,,2013-06-27 06:43:00,
2013-06-27 01:53:00,66.0,65.0,-100.00,WSW,255,1.0,1.0,96,-99.99,,,-99.99,,2013-06-27 06:53:00,
2013-06-27 02:02:00,66.0,65.0,-100.00,WSW,255,1.0,1.0,96,-99.99,,,-99.99,,2013-06-27 07:02:00,
2013-06-27 02:34:00,66.0,65.0,-100.00,SW,235,1.0,4.0,97,-99.99,,,-99.99,,2013-06-27 07:34:00,
2013-06-27 02:43:00,66.0,65.0,-100.00,SW,235,1.0,4.0,97,-99.99,,,-99.99,,2013-06-27 07:43:00,
2013-06-27 02:52:00,66.0,65.0,-100.00,SW,235,1.0,4.0,97,-99.99,,,-99.99,,2013-06-27 07:52:00,
2013-06-27 03:01:00,66.0,65.0,-100.00,SW,235,1.0,4.0,97,-99.99,,,-99.99,,2013-06-27 08:01:00,
2013-06-27 03:34:00,64.0,63.0,-100.00,ENE,65,0.0,1.0,97,-99.99,,,-99.99,,2013-06-27 08:34:00,
2013-06-27 03:44:00,64.0,63.0,-100.00,ENE,65,0.0,1.0,97,-99.99,,,-99.99,,2013-06-27 08:44:00,
2013-06-27 03:52:00,64.0,63.0,-100.00,ENE,65,0.0,1.0,97,-99.99,,,-99.99,,2013-06-27 08:52:00,
2013-06-27 04:02:00,64.0,63.0,-100.00,ENE,65,0.0,1.0,97,-99.99,,,-99.99,,2013-06-27 09:02:00,
2013-06-27 04:34:00,63.0,63.0,-100.00,SW,235,1.0,1.0,97,-99.99,,,-99.99,,2013-06-27 09:34:00,
2013-06-27 04:43:00,63.0,63.0,-100.00,SW,235,1.0,1.0,97,-99.99,,,-99.99,,2013-06-27 09:43:00,
2013-06-27 04:53:00,63.0,63.0,-100.00,SW,235,1.0,1.0,97,-99.99,,,-99.99,,2013-06-27 09:53:00,
2013-06-27 05:01:00,63.0,63.0,-100.00,SW,235,1.0,1.0,97,-99.99,,,-99.99,,2013-06-27 10:01:00,
2013-06-27 05:32:00,62.0,61.0,-100.00,West,265,1.0,2.0,97,-99.99,,,-99.99,,2013-06-27 10:32:00,
2013-06-27 05:44:00,62.0,61.0,-100.00,West,265,1.0,2.0,97,-99.99,,,-99.99,,2013-06-27 10:44:00,
2013-06-27 05:54:00,62.0,61.0,-100.00,West,265,1.0,2.0,97,-99.99,,,-99.99,,2013-06-27 10:54:00,
2013-06-27 06:02:00,62.0,61.0,-100.00,West,265,1.0,2.0,97,-99.99,,,-99.99,,2013-06-27 11:02:00,
2013-06-27 06:33:00,63.0,62.0,-100.00,SW,235,0.0,1.0,97,-99.99,,,-99.99,,2013-06-27 11:33:00,
2013-06-27 06:43:00,63.0,62.0,-100.00,SW,235,0.0,1.0,97,-99.99,,,-99.99,,2013-06-27 11:43:00,
2013-06-27 06:52:00,63.0,62.0,-100.00,SW,235,0.0,1.0,97,-99.99,,,-99.99,,2013-06-27 11:52:00,
2013-06-27 07:02:00,63.0,62.0,-100.00,SW,235,0.0,1.0,97,-99.99,,,-99.99,,2013-06-27 12:02:00,
2013-06-27 07:11:00,67.0,66.0,-100.00,WSW,245,1.0,2.0,97,-99.99,,,-99.99,,2013-06-27 12:11:00,
2013-06-27 07:34:00,67.0,66.0,-100.00,WSW,245,1.0,2.0,97,-99.99,,,-99.99,,2013-06-27 12:34:00,
2013-06-27 07:42:00,67.0,66.0,-100.00,WSW,245,1.0,2.0,97,-99.99,,,-99.99,,2013-06-27 12:42:00,
2013-06-27 08:01:00,67.0,66.0,-100.00,WSW,245,1.0,2.0,97,-99.99,,,-99.99,,2013-06-27 13:01:00,
2013-06-27 08:34:00,72.0,72.0,-100.00,NW,305,2.0,4.0,97,-99.99,,,-99.99,,2013-06-27 13:34:00,
2013-06-27 08:43:00,72.0,72.0,-100.00,NW,305,2.0,4.0,97,-99.99,,,-99.99,,2013-06-27 13:43:00,
2013-06-27 08:52:00,72.0,72.0,-100.00,NW,305,2.0,4.0,97,-99.99,,,-99.99,,2013-06-27 13:52:00,
2013-06-27 09:02:00,72.0,72.0,-100.00,NW,305,2.0,4.0,97,-99.99,,,-99.99,,2013-06-27 14:02:00,
2013-06-27 09:10:00,75.0,72.0,-100.00,SW,220,3.0,6.0,92,-99.99,,,-99.99,,2013-06-27 14:10:00,
2013-06-27 09:33:00,75.0,72.0,-100.00,SW,220,3.0,6.0,92,-99.99,,,-99.99,,2013-06-27 14:33:00,
2013-06-27 09:43:00,75.0,72.0,-100.00,SW,220,3.0,6.0,92,-99.99,,,-99.99,,2013-06-27 14:43:00,
2013-06-27 09:52:00,75.0,72.0,-100.00,SW,220,3.0,6.0,92,-99.99,,,-99.99,,2013-06-27 14:52:00,
2013-06-27 10:01:00,75.0,72.0,-100.00,SW,220,3.0,6.0,92,-99.99,,,-99.99,,2013-06-27 15:01:00,
2013-06-27 10:33:00,73.0,71.0,-100.00,SW,225,5.0,9.0,92,-99.99,,,-99.99,,2013-06-27 15:33:00,
2013-06-27 10:42:00,73.0,71.0,-100.00,SW,225,5.0,9.0,92,-99.99,,,-99.99,,2013-06-27 15:42:00,
2013-06-27 10:52:00,73.0,71.0,-100.00,SW,225,5.0,9.0,92,-99.99,,,-99.99,,2013-06-27 15:52:00,
2013-06-27 11:02:00,73.0,71.0,-100.00,SW,225,5.0,9.0,92,-99.99,,,-99.99,,2013-06-27 16:02:00,
2013-06-27 11:10:00,76.0,68.0,-100.00,SW,230,2.0,6.0,76,-99.99,,,-99.99,,2013-06-27 16:10:00,
2013-06-27 11:34:00,76.0,68.0,-100.00,SW,230,2.0,6.0,76,-99.99,,,-99.99,,2013-06-27 16:34:00,
2013-06-27 11:43:00,76.0,68.0,-100.00,SW,230,2.0,6.0,76,-99.99,,,-99.99,,2013-06-27 16:43:00,
2013-06-27 11:53:00,76.0,68.0,-100.00,SW,230,2.0,6.0,76,-99.99,,,-99.99,,2013-06-27 16:53:00,
2013-06-27 12:02:00,76.0,68.0,-100.00,SW,230,2.0,6.0,76,-99.99,,,-99.99,,2013-06-27 17:02:00,
2013-06-27 12:33:00,81.0,63.0,-100.00,SW,230,3.0,8.0,56,-99.99,,,-99.99,,2013-06-27 17:33:00,
2013-06-27 12:43:00,81.0,63.0,-100.00,SW,230,3.0,8.0,56,-99.99,,,-99.99,,2013-06-27 17:43:00,
2013-06-27 12:53:00,81.0,63.0,-100.00,SW,230,3.0,8.0,56,-99.99,,,-99.99,,2013-06-27 17:53:00,
2013-06-27 13:01:00,81.0,63.0,-100.00,SW,230,3.0,8.0,56,-99.99,,,-99.99,,2013-06-27 18:01:00,
2013-06-27 13:10:00,83.0,65.0,-100.00,SSW,195,7.0,12.0,54,-99.99,,,-99.99,,2013-06-27 18:10:00,
2013-06-27 13:32:00,83.0,65.0,-100.00,SSW,195,7.0,12.0,54,-99.99,,,-99.99,,2013-06-27 18:32:00,
2013-06-27 13:44:00,83.0,65.0,-100.00,SSW,195,7.0,12.0,54,-99.99,,,-99.99,,2013-06-27 18:44:00,
2013-06-27 13:52:00,83.0,65.0,-100.00,SSW,195,7.0,12.0,54,-99.99,,,-99.99,,2013-06-27 18:52:00,
2013-06-27 14:01:00,83.0,65.0,-100.00,SSW,195,7.0,12.0,54,-99.99,,,-99.99,,2013-06-27 19:01:00,
2013-06-27 14:34:00,83.0,65.0,-100.00,SSW,210,4.0,7.0,56,-99.99,,,-99.99,,2013-06-27 19:34:00,
2013-06-27 14:42:00,83.0,65.0,-100.00,SSW,210,4.0,7.0,56,-99.99,,,-99.99,,2013-06-27 19:42:00,
2013-06-27 14:53:00,83.0,65.0,-100.00,SSW,210,4.0,7.0,56,-99.99,,,-99.99,,2013-06-27 19:53:00,
2013-06-27 15:02:00,83.0,65.0,-100.00,SSW,210,4.0,7.0,56,-99.99,,,-99.99,,2013-06-27 20:02:00,
2013-06-27 15:39:00,85.0,65.0,-100.00,West,280,4.0,15.0,52,-99.99,,,-99.99,,2013-06-27 20:39:00,
2013-06-27 15:49:00,85.0,65.0,-100.00,West,280,4.0,15.0,52,-99.99,,,-99.99,,2013-06-27 20:49:00,
2013-06-27 15:55:00,85.0,65.0,-100.00,West,280,4.0,15.0,52,-99.99,,,-99.99,,2013-06-27 20:55:00,
2013-06-27 16:36:00,84.0,57.0,-100.00,WSW,245,12.0,27.0,40,-99.99,,,-99.99,,2013-06-27 21:36:00,
2013-06-27 16:49:00,84.0,57.0,-100.00,WSW,245,12.0,27.0,40,-99.99,,,-99.99,,2013-06-27 21:49:00,
2013-06-27 16:56:00,84.0,57.0,-100.00,WSW,245,12.0,27.0,40,-99.99,,,-99.99,,2013-06-27 21:56:00,
2013-06-27 17:06:00,84.0,57.0,-100.00,WSW,245,12.0,27.0,40,-99.99,,,-99.99,,2013-06-27 22:06:00,
2013-06-27 17:36:00,84.0,55.0,-100.00,West,265,13.0,24.0,38,-99.99,,,-99.99,,2013-06-27 22:36:00,
2013-06-27 17:49:00,84.0,55.0,-100.00,West,265,13.0,24.0,38,-99.99,,,-99.99,,2013-06-27 22:49:00,
2013-06-27 17:58:00,84.0,55.0,-100.00,West,265,13.0,24.0,38,-99.99,,,-99.99,,2013-06-27 22:58:00,
2013-06-27 18:05:00,84.0,55.0,-100.00,West,265,13.0,24.0,38,-99.99,,,-99.99,,2013-06-27 23:05:00,
2013-06-27 18:10:00,83.0,54.0,-100.00,West,265,12.0,22.0,37,-99.99,,,-99.99,,2013-06-27 23:10:00,
2013-06-27 18:36:00,83.0,54.0,-100.00,West,265,12.0,22.0,37,-99.99,,,-99.99,,2013-06-27 23:36:00,
2013-06-27 18:58:00,83.0,54.0,-100.00,West,265,12.0,22.0,37,-99.99,,,-99.99,,2013-06-27 23:58:00,
2013-06-27 19:07:00,83.0,54.0,-100.00,West,265,12.0,22.0,37,-99.99,,,-99.99,,2013-06-28 00:07:00,
2013-06-27 19:37:00,82.0,54.0,-100.00,West,280,6.0,12.0,39,-99.99,,,-99.99,,2013-06-28 00:37:00,
2013-06-27 19:46:00,82.0,54.0,-100.00,West,280,6.0,12.0,39,-99.99,,,-99.99,,2013-06-28 00:46:00,
2013-06-27 19:56:00,82.0,54.0,-100.00,West,280,6.0,12.0,39,-99.99,,,-99.99,,2013-06-28 00:56:00,
2013-06-27 20:07:00,82.0,54.0,-100.00,West,280,6.0,12.0,39,-99.99,,,-99.99,,2013-06-28 01:07:00,
2013-06-27 20:37:00,78.0,54.0,-100.00,West,275,4.0,7.0,43,-99.99,,,-99.99,,2013-06-28 01:37:00,
2013-06-27 20:48:00,78.0,54.0,-100.00,West,275,4.0,7.0,43,-99.99,,,-99.99,,2013-06-28 01:48:00,
2013-06-27 20:57:00,78.0,54.0,-100.00,West,275,4.0,7.0,43,-99.99,,,-99.99,,2013-06-28 01:57:00,
2013-06-27 21:06:00,78.0,54.0,-100.00,West,275,4.0,7.0,43,-99.99,,,-99.99,,2013-06-28 02:06:00,
2013-06-27 21:38:00,75.0,54.0,-100.00,West,280,4.0,11.0,48,-99.99,,,-99.99,,2013-06-28 02:38:00,
2013-06-27 21:50:00,75.0,54.0,-100.00,West,280,4.0,11.0,48,-99.99,,,-99.99,,2013-06-28 02:50:00,
2013-06-27 21:58:00,75.0,54.0,-100.00,West,280,4.0,11.0,48,-99.99,,,-99.99,,2013-06-28 02:58:00,
2013-06-27 22:07:00,75.0,54.0,-100.00,West,280,4.0,11.0,48,-99.99,,,-99.99,,2013-06-28 03:07:00,
2013-06-27 22:46:00,70.0,56.0,-100.00,West,260,2.0,6.0,60,-99.99,,,-99.99,,2013-06-28 03:46:00,
2013-06-27 22:56:00,70.0,56.0,-100.00,West,260,2.0,6.0,60,-99.99,,,-99.99,,2013-06-28 03:56:00,
2013-06-27 23:02:00,70.0,56.0,-100.00,West,260,2.0,6.0,60,-99.99,,,-99.99,,2013-06-28 04:02:00,
2013-06-27 23:10:00,69.0,56.0,-100.00,NW,305,5.0,9.0,63,-99.99,,,-99.99,,2013-06-28 04:10:00,
2013-06-27 23:33:00,69.0,56.0,-100.00,NW,305,5.0,9.0,63,-99.99,,,-99.99,,2013-06-28 04:33:00,
2013-06-27 23:43:00,69.0,56.0,-100.00,NW,305,5.0,9.0,63,-99.99,,,-99.99,,2013-06-28 04:43:00,
2013-06-27 23:53:00,69.0,56.0,-100.00,NW,305,5.0,9.0,63,-99.99,,,-99.99,,2013-06-28 04:53:00,